createdAt,value
2018-04-29T00:01:29.930Z,14.00
2018-04-29T00:03:56.148Z,13.80
2018-04-29T00:06:23.412Z,13.80
2018-04-29T00:08:49.571Z,13.70
2018-04-29T00:11:15.816Z,13.60
2018-04-29T00:13:42.008Z,13.50
2018-04-29T00:16:09.283Z,13.50
2018-04-29T00:18:35.457Z,13.40
2018-04-29T00:23:29.498Z,13.40
2018-04-29T00:25:55.690Z,13.50
2018-04-29T00:28:21.890Z,13.50
2018-04-29T00:30:48.050Z,13.50
2018-04-29T00:33:15.314Z,13.50
2018-04-29T00:35:41.491Z,13.40
2018-04-29T00:38:08.966Z,13.40
2018-04-29T00:40:35.216Z,13.40
2018-04-29T00:43:01.390Z,13.40
2018-04-29T00:45:27.569Z,13.20
2018-04-29T00:47:53.735Z,13.30
2018-04-29T00:50:19.934Z,13.40
2018-04-29T00:52:46.087Z,13.30
2018-04-29T00:55:12.295Z,13.30
2018-04-29T00:57:38.477Z,13.20
2018-04-29T01:00:04.660Z,13.20
2018-04-29T01:02:31.967Z,13.30
2018-04-29T01:04:58.118Z,13.20
2018-04-29T01:07:25.378Z,13.20
2018-04-29T01:09:52.960Z,13.20
2018-04-29T01:12:20.859Z,13.20
2018-04-29T01:14:49.562Z,13.20
2018-04-29T01:17:18.247Z,13.20
2018-04-29T01:19:47.811Z,13.20
2018-04-29T01:22:16.466Z,13.10
2018-04-29T01:24:42.638Z,13.20
2018-04-29T01:27:08.870Z,13.10
2018-04-29T01:29:36.154Z,13.10
2018-04-29T01:32:02.338Z,13.10
2018-04-29T01:36:57.297Z,13.00
2018-04-29T01:39:23.567Z,12.90
2018-04-29T01:41:49.750Z,12.90
2018-04-29T01:44:17.011Z,12.90
2018-04-29T01:46:44.059Z,12.90
2018-04-29T01:49:10.257Z,12.80
2018-04-29T01:51:36.444Z,12.80
2018-04-29T01:54:02.922Z,12.80
2018-04-29T01:56:29.078Z,12.60
2018-04-29T01:58:56.638Z,12.70
2018-04-29T02:01:23.000Z,12.60
2018-04-29T02:03:49.148Z,12.70
2018-04-29T02:06:15.506Z,12.60
2018-04-29T02:08:41.682Z,12.40
2018-04-29T02:11:08.937Z,12.30
2018-04-29T02:13:35.098Z,12.40
2018-04-29T02:16:01.271Z,12.40
2018-04-29T02:18:27.424Z,12.60
2018-04-29T02:20:54.597Z,12.50
2018-04-29T02:25:48.673Z,12.40
2018-04-29T02:28:14.842Z,12.30
2018-04-29T02:30:41.052Z,12.30
2018-04-29T02:33:07.214Z,12.30
2018-04-29T02:35:33.393Z,12.30
2018-04-29T02:37:59.586Z,12.40
2018-04-29T02:40:25.745Z,12.40
2018-04-29T02:42:51.906Z,12.30
2018-04-29T02:45:18.150Z,12.40
2018-04-29T02:47:45.428Z,12.40
2018-04-29T02:50:11.571Z,12.40
2018-04-29T02:52:37.722Z,12.20
2018-04-29T02:55:04.049Z,12.20
2018-04-29T02:57:30.203Z,12.00
2018-04-29T02:59:56.358Z,12.00
2018-04-29T03:02:23.649Z,12.30
2018-04-29T03:04:49.805Z,12.20
2018-04-29T03:07:17.094Z,12.20
2018-04-29T03:09:43.246Z,12.10
2018-04-29T03:12:09.406Z,12.10
2018-04-29T03:14:35.570Z,12.00
2018-04-29T03:17:01.734Z,12.00
2018-04-29T03:19:27.895Z,12.10
2018-04-29T03:21:54.051Z,12.00
2018-04-29T03:24:20.200Z,12.00
2018-04-29T03:26:46.395Z,11.90
2018-04-29T03:29:12.554Z,11.90
2018-04-29T03:31:39.850Z,11.80
2018-04-29T03:34:06.018Z,11.70
2018-04-29T03:36:32.176Z,11.70
2018-04-29T03:38:58.346Z,11.80
2018-04-29T03:41:24.492Z,11.80
2018-04-29T03:43:50.652Z,11.80
2018-04-29T03:46:16.848Z,11.70
2018-04-29T03:48:43.066Z,11.70
2018-04-29T03:51:09.217Z,11.60
2018-04-29T03:53:35.467Z,11.70
2018-04-29T03:56:01.688Z,11.60
2018-04-29T03:58:41.143Z,11.70
2018-04-29T04:01:20.539Z,11.70
2018-04-29T04:03:54.768Z,11.60
2018-04-29T04:06:22.032Z,11.70
2018-04-29T04:08:48.198Z,11.60
2018-04-29T04:11:14.481Z,11.60
2018-04-29T04:13:40.647Z,11.60
2018-04-29T04:16:07.921Z,11.50
2018-04-29T04:18:34.098Z,11.50
2018-04-29T04:21:01.364Z,11.50
2018-04-29T04:23:27.535Z,11.50
2018-04-29T04:25:53.702Z,11.40
2018-04-29T04:28:19.907Z,11.50
2018-04-29T04:30:46.050Z,11.40
2018-04-29T04:33:12.239Z,11.50
2018-04-29T04:35:38.394Z,11.60
2018-04-29T04:38:04.655Z,11.60
2018-04-29T04:40:30.882Z,11.60
2018-04-29T04:42:57.131Z,11.70
2018-04-29T04:45:23.245Z,11.70
2018-04-29T04:47:49.418Z,11.50
2018-04-29T04:50:15.595Z,11.50
2018-04-29T04:55:10.838Z,11.80
2018-04-29T04:57:37.010Z,11.70
2018-04-29T05:00:03.220Z,11.70
2018-04-29T05:04:57.257Z,11.80
2018-04-29T05:07:23.425Z,11.90
2018-04-29T05:09:49.609Z,11.90
2018-04-29T05:12:16.858Z,12.10
2018-04-29T05:14:43.030Z,12.10
2018-04-29T05:17:09.243Z,12.30
2018-04-29T05:19:35.492Z,12.50
2018-04-29T05:22:01.654Z,12.60
2018-04-29T05:24:27.926Z,12.80
2018-04-29T05:26:54.090Z,12.80
2018-04-29T05:29:20.614Z,12.90
2018-04-29T05:31:46.819Z,13.40
2018-04-29T05:34:12.968Z,13.40
2018-04-29T05:36:40.237Z,13.60
2018-04-29T05:39:06.427Z,13.50
2018-04-29T05:44:00.515Z,13.50
2018-04-29T05:46:26.686Z,13.50
2018-04-29T05:48:52.942Z,12.90
2018-04-29T05:51:19.160Z,12.80
2018-04-29T05:53:45.331Z,12.50
2018-04-29T05:56:11.497Z,12.80
2018-04-29T05:58:37.701Z,12.70
2018-04-29T06:01:04.075Z,12.70
2018-04-29T06:03:31.337Z,12.40
2018-04-29T06:05:57.518Z,12.40
2018-04-29T06:08:23.675Z,12.30
2018-04-29T06:10:49.843Z,12.20
2018-04-29T06:13:16.018Z,12.00
2018-04-29T06:15:42.160Z,12.00
2018-04-29T06:18:08.360Z,11.70
2018-04-29T06:20:34.567Z,11.90
2018-04-29T06:23:00.707Z,11.70
2018-04-29T06:27:55.621Z,11.70
2018-04-29T06:30:21.772Z,11.80
2018-04-29T06:32:47.928Z,11.70
2018-04-29T06:35:15.305Z,11.90
2018-04-29T06:37:41.458Z,11.80
2018-04-29T06:40:07.622Z,12.10
2018-04-29T06:42:33.830Z,12.20
2018-04-29T06:44:59.982Z,12.30
2018-04-29T06:47:26.146Z,12.50
2018-04-29T06:49:52.326Z,12.60
2018-04-29T06:52:18.604Z,12.90
2018-04-29T06:54:44.786Z,13.10
2018-04-29T06:57:11.057Z,13.30
2018-04-29T06:59:37.213Z,13.60
2018-04-29T07:02:03.397Z,14.00
2018-04-29T07:04:29.735Z,14.30
2018-04-29T07:06:56.999Z,14.60
2018-04-29T07:09:23.182Z,14.60
2018-04-29T07:11:50.591Z,14.30
2018-04-29T07:14:16.774Z,14.30
2018-04-29T07:16:42.967Z,14.10
2018-04-29T07:19:09.154Z,14.00
2018-04-29T07:21:36.439Z,13.70
2018-04-29T07:24:02.626Z,13.80
2018-04-29T07:26:28.821Z,13.80
2018-04-29T07:28:56.105Z,13.80
2018-04-29T07:31:22.266Z,13.70
2018-04-29T07:33:49.550Z,13.80
2018-04-29T07:36:15.727Z,13.90
2018-04-29T07:41:09.891Z,14.00
2018-04-29T07:43:36.251Z,13.90
2018-04-29T07:46:02.436Z,13.70
2018-04-29T07:48:28.622Z,13.70
2018-04-29T07:50:54.801Z,13.90
2018-04-29T07:53:20.968Z,14.40
2018-04-29T07:58:16.039Z,15.60
2018-04-29T08:00:43.497Z,16.30
2018-04-29T08:03:09.622Z,16.60
2018-04-29T08:05:37.035Z,16.20
2018-04-29T08:08:04.311Z,15.40
2018-04-29T08:10:30.528Z,15.40
2018-04-29T08:12:56.715Z,14.70
2018-04-29T08:15:22.921Z,14.30
2018-04-29T08:17:51.128Z,14.70
2018-04-29T08:20:17.818Z,14.70
2018-04-29T08:22:45.159Z,14.60
2018-04-29T08:25:11.805Z,14.50
2018-04-29T08:27:38.039Z,14.30
2018-04-29T08:30:04.395Z,14.20
2018-04-29T08:32:32.314Z,14.40
2018-04-29T08:34:59.656Z,14.50
2018-04-29T08:37:25.867Z,14.40
2018-04-29T08:39:52.063Z,14.40
2018-04-29T08:42:18.246Z,14.50
2018-04-29T08:44:44.419Z,14.70
2018-04-29T08:47:11.138Z,14.80
2018-04-29T08:49:37.306Z,14.70
2018-04-29T08:52:03.551Z,14.60
2018-04-29T08:54:29.734Z,14.80
2018-04-29T08:56:55.943Z,15.20
2018-04-29T08:59:22.171Z,15.70
2018-04-29T09:01:48.435Z,15.80
2018-04-29T09:04:14.634Z,16.10
2018-04-29T09:06:41.167Z,16.20
2018-04-29T09:09:07.339Z,16.20
2018-04-29T09:11:33.531Z,16.40
2018-04-29T09:13:59.735Z,16.20
2018-04-29T09:18:53.935Z,16.20
2018-04-29T09:21:20.101Z,16.10
2018-04-29T09:23:47.453Z,15.70
2018-04-29T09:26:13.618Z,15.70
2018-04-29T09:28:39.790Z,15.70
2018-04-29T09:31:05.957Z,15.50
2018-04-29T09:33:32.123Z,15.60
2018-04-29T09:35:58.289Z,15.80
2018-04-29T09:38:24.554Z,15.80
2018-04-29T09:40:50.715Z,16.20
2018-04-29T09:43:16.940Z,16.40
2018-04-29T09:45:43.093Z,17.10
2018-04-29T09:48:09.276Z,17.50
2018-04-29T09:50:36.562Z,19.00
2018-04-29T09:53:02.707Z,19.10
2018-04-29T09:55:28.971Z,18.70
2018-04-29T09:57:55.149Z,18.90
2018-04-29T10:00:26.542Z,18.90
2018-04-29T10:02:52.810Z,19.00
2018-04-29T10:05:19.031Z,19.70
2018-04-29T10:07:45.199Z,20.60
2018-04-29T10:10:11.361Z,20.90
2018-04-29T10:12:37.554Z,21.10
2018-04-29T10:15:04.842Z,21.20
2018-04-29T10:17:30.998Z,21.10
2018-04-29T10:19:58.299Z,22.00
2018-04-29T10:22:24.458Z,22.00
2018-04-29T10:24:51.742Z,22.80
2018-04-29T10:27:17.910Z,22.80
2018-04-29T10:29:45.193Z,23.60
2018-04-29T10:32:11.466Z,23.50
2018-04-29T10:34:37.711Z,23.60
2018-04-29T10:37:03.891Z,23.80
2018-04-29T10:39:31.194Z,23.90
2018-04-29T10:41:57.390Z,23.80
2018-04-29T10:44:23.550Z,24.30
2018-04-29T10:46:50.502Z,24.30
2018-04-29T10:49:16.664Z,24.30
2018-04-29T10:51:42.837Z,24.50
2018-04-29T10:54:09.058Z,25.00
2018-04-29T10:56:35.220Z,25.50
2018-04-29T10:59:02.163Z,25.50
2018-04-29T11:01:29.067Z,25.50
2018-04-29T11:03:55.221Z,25.50
2018-04-29T11:06:21.407Z,25.60
2018-04-29T11:08:47.588Z,25.60
2018-04-29T11:11:13.819Z,25.40
2018-04-29T11:13:40.258Z,25.70
2018-04-29T11:16:07.540Z,25.70
2018-04-29T11:18:33.710Z,25.50
2018-04-29T11:21:00.606Z,26.00
2018-04-29T11:23:26.780Z,26.00
2018-04-29T11:25:53.031Z,25.90
2018-04-29T11:28:19.202Z,26.50
2018-04-29T11:30:45.461Z,26.90
2018-04-29T11:33:11.642Z,27.10
2018-04-29T11:35:37.888Z,27.20
2018-04-29T11:38:04.055Z,27.90
2018-04-29T11:40:30.636Z,28.60
2018-04-29T11:42:56.761Z,29.80
2018-04-29T11:45:23.268Z,30.90
2018-04-29T11:47:49.534Z,31.20
2018-04-29T11:50:15.701Z,32.90
2018-04-29T11:52:41.955Z,34.60
2018-04-29T11:55:08.154Z,35.20
2018-04-29T11:57:34.475Z,36.40
2018-04-29T12:00:00.631Z,37.00
2018-04-29T12:02:27.087Z,37.00
2018-04-29T12:04:53.190Z,37.10
2018-04-29T12:07:19.348Z,35.20
2018-04-29T12:09:45.538Z,35.90
2018-04-29T12:12:12.439Z,36.80
2018-04-29T12:14:38.620Z,36.80
2018-04-29T12:17:05.011Z,36.80
2018-04-29T12:19:31.167Z,36.50
2018-04-29T12:21:57.382Z,35.80
2018-04-29T12:24:23.570Z,36.20
2018-04-29T12:26:49.925Z,35.90
2018-04-29T12:29:16.118Z,35.80
2018-04-29T12:31:42.293Z,35.80
2018-04-29T12:34:08.503Z,36.00
2018-04-29T12:36:34.796Z,36.20
2018-04-29T12:39:01.765Z,38.30
2018-04-29T12:41:27.943Z,38.30
2018-04-29T12:43:54.857Z,39.50
2018-04-29T12:46:21.047Z,39.50
2018-04-29T12:48:47.217Z,40.20
2018-04-29T12:51:13.525Z,41.50
2018-04-29T12:53:39.802Z,41.00
2018-04-29T12:56:05.991Z,42.60
2018-04-29T12:58:32.260Z,41.40
2018-04-29T13:00:58.481Z,41.60
2018-04-29T13:03:25.378Z,42.50
2018-04-29T13:05:51.554Z,42.50
2018-04-29T13:08:17.718Z,43.70
2018-04-29T13:10:43.886Z,44.30
2018-04-29T13:13:10.806Z,44.20
2018-04-29T13:15:37.173Z,44.20
2018-04-29T13:18:03.357Z,43.70
2018-04-29T13:20:30.642Z,42.30
2018-04-29T13:22:56.894Z,42.30
2018-04-29T13:25:24.161Z,42.30
2018-04-29T13:27:50.357Z,42.20
2018-04-29T13:30:17.282Z,40.70
2018-04-29T13:32:44.222Z,39.30
2018-04-29T13:35:12.063Z,39.00
2018-04-29T13:37:38.956Z,39.10
2018-04-29T13:40:05.167Z,39.20
2018-04-29T13:42:31.653Z,38.30
2018-04-29T13:44:57.854Z,38.20
2018-04-29T13:47:24.134Z,38.30
2018-04-29T13:49:50.711Z,37.60
2018-04-29T13:52:16.950Z,37.40
2018-04-29T13:54:43.075Z,37.40
2018-04-29T13:57:09.280Z,37.70
2018-04-29T13:59:35.454Z,37.30
2018-04-29T14:02:01.646Z,36.60
2018-04-29T14:04:29.002Z,35.20
2018-04-29T14:06:55.817Z,35.20
2018-04-29T14:09:22.663Z,35.10
2018-04-29T14:11:48.867Z,35.00
2018-04-29T14:14:15.019Z,34.50
2018-04-29T14:16:41.282Z,34.30
2018-04-29T14:19:07.461Z,34.40
2018-04-29T14:21:33.625Z,34.10
2018-04-29T14:23:59.868Z,34.20
2018-04-29T14:26:26.074Z,33.90
2018-04-29T14:28:52.254Z,34.70
2018-04-29T14:31:18.471Z,34.50
2018-04-29T14:33:44.792Z,33.70
2018-04-29T14:36:10.966Z,33.10
2018-04-29T14:38:37.130Z,32.50
2018-04-29T14:41:03.359Z,32.10
2018-04-29T14:43:29.622Z,31.30
2018-04-29T14:45:56.919Z,29.60
2018-04-29T14:48:23.098Z,29.50
2018-04-29T14:50:49.263Z,29.30
2018-04-29T14:53:15.431Z,28.70
2018-04-29T14:55:41.618Z,28.30
2018-04-29T14:58:08.522Z,27.60
2018-04-29T15:00:34.715Z,27.60
2018-04-29T15:03:00.873Z,26.90
2018-04-29T15:05:27.810Z,27.00
2018-04-29T15:07:54.739Z,26.60
2018-04-29T15:10:21.693Z,26.60
2018-04-29T15:12:47.842Z,26.60
2018-04-29T15:15:14.037Z,26.30
2018-04-29T15:17:40.199Z,26.20
2018-04-29T15:20:07.474Z,26.00
2018-04-29T15:22:33.666Z,26.00
2018-04-29T15:24:59.830Z,25.90
2018-04-29T15:27:26.080Z,25.80
2018-04-29T15:29:52.278Z,25.60
2018-04-29T15:32:18.450Z,25.60
2018-04-29T15:34:44.610Z,25.40
2018-04-29T15:37:12.022Z,25.30
2018-04-29T15:39:38.203Z,25.30
2018-04-29T15:42:04.357Z,25.30
2018-04-29T15:44:30.551Z,25.20
2018-04-29T15:46:56.718Z,25.20
2018-04-29T15:49:22.889Z,25.30
2018-04-29T15:51:49.066Z,25.00
2018-04-29T15:54:15.229Z,25.00
2018-04-29T15:56:41.406Z,25.00
2018-04-29T15:59:07.606Z,25.10
2018-04-29T16:01:33.758Z,25.10
2018-04-29T16:03:59.918Z,25.10
2018-04-29T16:06:26.083Z,25.00
2018-04-29T16:08:52.262Z,24.80
2018-04-29T16:11:18.448Z,24.80
2018-04-29T16:13:44.728Z,24.80
2018-04-29T16:16:10.936Z,24.80
2018-04-29T16:18:37.119Z,24.70
2018-04-29T16:21:03.301Z,24.70
2018-04-29T16:23:29.504Z,24.70
2018-04-29T16:25:55.691Z,24.60
2018-04-29T16:28:21.863Z,24.60
2018-04-29T16:30:48.022Z,24.50
2018-04-29T16:33:14.219Z,24.30
2018-04-29T16:35:40.413Z,24.30
2018-04-29T16:38:06.648Z,24.20
2018-04-29T16:40:32.754Z,24.20
2018-04-29T16:42:58.943Z,24.10
2018-04-29T16:45:25.282Z,23.90
2018-04-29T16:47:51.482Z,23.80
2018-04-29T16:50:17.658Z,23.90
2018-04-29T16:52:43.811Z,23.90
2018-04-29T16:55:10.015Z,24.00
2018-04-29T16:57:36.202Z,23.80
2018-04-29T17:00:02.383Z,23.70
2018-04-29T17:02:28.573Z,23.70
2018-04-29T17:04:54.761Z,23.70
2018-04-29T17:07:21.677Z,23.70
2018-04-29T17:09:48.974Z,23.70
2018-04-29T17:12:15.137Z,23.60
2018-04-29T17:14:41.327Z,23.70
2018-04-29T17:17:07.573Z,23.60
2018-04-29T17:19:33.730Z,23.80
2018-04-29T17:21:59.897Z,23.60
2018-04-29T17:24:26.078Z,23.50
2018-04-29T17:26:53.411Z,23.40
2018-04-29T17:31:48.695Z,23.20
2018-04-29T17:34:14.871Z,23.20
2018-04-29T17:36:41.026Z,23.20
2018-04-29T17:39:07.318Z,23.20
2018-04-29T17:41:33.484Z,23.00
2018-04-29T17:43:59.695Z,22.80
2018-04-29T17:46:25.951Z,22.90
2018-04-29T17:48:52.157Z,22.70
2018-04-29T17:51:18.322Z,22.60
2018-04-29T17:53:45.608Z,22.60
2018-04-29T17:56:11.835Z,22.60
2018-04-29T17:58:38.367Z,22.40
2018-04-29T18:01:04.666Z,22.30
2018-04-29T18:03:30.838Z,21.90
2018-04-29T18:05:57.007Z,22.20
2018-04-29T18:08:23.230Z,22.20
2018-04-29T18:10:50.514Z,22.00
2018-04-29T18:13:16.699Z,22.10
2018-04-29T18:15:44.176Z,21.90
2018-04-29T18:18:11.041Z,22.00
2018-04-29T18:20:37.242Z,21.80
2018-04-29T18:23:03.601Z,21.70
2018-04-29T18:25:29.865Z,21.60
2018-04-29T18:27:56.090Z,21.60
2018-04-29T18:30:22.383Z,21.60
2018-04-29T18:32:48.583Z,21.50
2018-04-29T18:35:15.682Z,21.40
2018-04-29T18:37:42.032Z,21.40
2018-04-29T18:40:08.342Z,21.30
2018-04-29T18:42:34.747Z,21.40
2018-04-29T18:45:00.942Z,21.30
2018-04-29T18:47:27.212Z,21.20
2018-04-29T18:49:53.663Z,21.20
2018-04-29T18:52:19.862Z,21.10
2018-04-29T18:54:46.019Z,21.10
2018-04-29T18:57:12.333Z,21.10
2018-04-29T18:59:39.473Z,21.10
2018-04-29T19:02:05.804Z,21.10
2018-04-29T19:04:32.131Z,20.90
2018-04-29T19:06:58.599Z,21.10
2018-04-29T19:09:26.094Z,21.00
2018-04-29T19:11:52.313Z,21.10
2018-04-29T19:14:18.495Z,21.00
2018-04-29T19:16:44.689Z,20.90
2018-04-29T19:19:11.186Z,20.80
2018-04-29T19:21:38.864Z,20.90
2018-04-29T19:24:05.412Z,20.90
2018-04-29T19:26:31.834Z,20.80
2018-04-29T19:28:58.118Z,20.80
2018-04-29T19:31:24.582Z,20.90
2018-04-29T19:33:50.776Z,20.90
2018-04-29T19:36:17.063Z,20.90
2018-04-29T19:38:43.486Z,20.80
2018-04-29T19:41:09.855Z,20.80
2018-04-29T19:43:36.050Z,20.70
2018-04-29T19:46:02.262Z,20.70
2018-04-29T19:48:29.475Z,20.60
2018-04-29T19:50:55.722Z,20.60
2018-04-29T19:53:23.051Z,20.50
2018-04-29T19:55:49.551Z,20.60
2018-04-29T19:58:15.789Z,20.40
2018-04-29T20:00:41.995Z,20.40
2018-04-29T20:03:09.107Z,20.30
2018-04-29T20:05:36.568Z,20.30
2018-04-29T20:08:04.011Z,20.30
2018-04-29T20:10:31.955Z,20.30
2018-04-29T20:13:02.155Z,20.10
2018-04-29T20:15:34.370Z,20.20
2018-04-29T20:18:11.795Z,20.20
2018-04-29T20:20:38.006Z,20.20
2018-04-29T20:23:07.782Z,20.10
2018-04-29T20:25:35.378Z,20.10
2018-04-29T20:28:03.723Z,20.00
2018-04-29T20:30:30.594Z,20.00
2018-04-29T20:32:56.766Z,20.00
2018-04-29T20:35:22.978Z,19.90
2018-04-29T20:37:49.355Z,19.90
2018-04-29T20:40:15.527Z,19.80
2018-04-29T20:42:43.328Z,19.80
2018-04-29T20:45:09.826Z,19.80
2018-04-29T20:47:36.363Z,19.80
2018-04-29T20:50:02.825Z,19.70
2018-04-29T20:52:30.343Z,19.80
2018-04-29T20:54:58.331Z,19.70
2018-04-29T20:57:26.399Z,19.60
2018-04-29T20:59:53.674Z,19.60
2018-04-29T21:02:19.850Z,19.60
2018-04-29T21:04:46.057Z,19.60
2018-04-29T21:07:13.671Z,19.60
2018-04-29T21:09:40.101Z,19.50
2018-04-29T21:14:35.056Z,19.60
2018-04-29T21:17:01.339Z,19.60
2018-04-29T21:19:27.856Z,19.60
2018-04-29T21:21:54.046Z,19.60
2018-04-29T21:24:22.247Z,19.60
2018-04-29T21:26:48.583Z,19.70
2018-04-29T21:29:14.961Z,19.60
2018-04-29T21:31:41.215Z,19.60
2018-04-29T21:34:07.564Z,19.60
2018-04-29T21:36:33.801Z,19.60
2018-04-29T21:39:00.011Z,19.70
2018-04-29T21:41:27.426Z,19.70
2018-04-29T21:43:53.765Z,19.70
2018-04-29T21:46:19.975Z,19.60
2018-04-29T21:48:46.226Z,19.50
2018-04-29T21:51:12.442Z,19.60
2018-04-29T21:53:38.636Z,19.50
2018-04-29T21:56:04.857Z,19.50
2018-04-29T21:58:31.065Z,19.70
2018-04-29T22:00:58.646Z,19.70
2018-04-29T22:03:24.908Z,19.70
2018-04-29T22:05:51.118Z,19.60
2018-04-29T22:08:18.810Z,19.60
2018-04-29T22:10:45.046Z,19.60
2018-04-29T22:13:11.269Z,19.60
2018-04-29T22:15:37.473Z,19.50
2018-04-29T22:18:03.674Z,19.50
2018-04-29T22:20:29.875Z,19.40
2018-04-29T22:22:56.051Z,19.30
2018-04-29T22:25:22.274Z,19.50
2018-04-29T22:27:48.513Z,19.50
2018-04-29T22:30:14.723Z,19.50
2018-04-29T22:32:40.940Z,19.50
2018-04-29T22:35:07.295Z,19.50
2018-04-29T22:37:33.521Z,19.50
2018-04-29T22:39:59.721Z,19.50
2018-04-29T22:42:25.882Z,19.40
2018-04-29T22:44:52.070Z,19.30
2018-04-29T22:47:18.255Z,19.20
2018-04-29T22:49:44.410Z,19.20
2018-04-29T22:52:11.828Z,19.20
2018-04-29T22:54:39.371Z,19.10
2018-04-29T22:57:05.831Z,19.10
2018-04-29T22:59:32.022Z,19.00
2018-04-29T23:01:59.331Z,19.00
2018-04-29T23:04:25.857Z,19.00
2018-04-29T23:06:52.147Z,19.00
2018-04-29T23:09:18.335Z,18.90
2018-04-29T23:11:45.106Z,18.90
2018-04-29T23:14:11.277Z,19.00
2018-04-29T23:16:37.816Z,19.00
2018-04-29T23:19:05.796Z,19.00
2018-04-29T23:21:32.307Z,18.90
2018-04-29T23:23:58.514Z,18.90
2018-04-29T23:26:24.872Z,19.10
2018-04-29T23:28:51.665Z,19.10
2018-04-29T23:31:17.863Z,19.00
2018-04-29T23:33:44.022Z,19.20
2018-04-29T23:36:10.184Z,19.10
2018-04-29T23:38:36.771Z,19.10
2018-04-29T23:41:03.187Z,19.00
2018-04-29T23:43:29.412Z,18.90
2018-04-29T23:45:55.610Z,18.80
2018-04-29T23:48:22.883Z,18.80
2018-04-29T23:50:49.343Z,18.80
2018-04-29T23:53:16.550Z,18.60
2018-04-29T23:55:42.714Z,18.60
2018-04-29T23:58:09.814Z,18.40
